sensor_id;sensor_type;location;lat;lon;timestamp;P1;durP1;ratioP1;P2;durP2;ratioP2
24337;SDS011;12457;50.832;4.346;2023-12-07T00:01:29;51.03;;;22.85;;
24337;SDS011;12457;50.832;4.346;2023-12-07T00:03:57;52.60;;;24.88;;
24337;SDS011;12457;50.832;4.346;2023-12-07T00:06:24;53.47;;;24.10;;
24337;SDS011;12457;50.832;4.346;2023-12-07T00:08:50;53.47;;;25.67;;
24337;SDS011;12457;50.832;4.346;2023-12-07T00:11:18;51.35;;;24.35;;
24337;SDS011;12457;50.832;4.346;2023-12-07T00:13:44;48.75;;;23.33;;
24337;SDS011;12457;50.832;4.346;2023-12-07T00:16:09;53.13;;;23.60;;
24337;SDS011;12457;50.832;4.346;2023-12-07T00:18:35;53.05;;;23.50;;
24337;SDS011;12457;50.832;4.346;2023-12-07T00:21:01;52.22;;;23.40;;
24337;SDS011;12457;50.832;4.346;2023-12-07T00:23:26;47.17;;;22.77;;
24337;SDS011;12457;50.832;4.346;2023-12-07T00:25:52;52.78;;;23.45;;
24337;SDS011;12457;50.832;4.346;2023-12-07T00:28:18;53.35;;;23.02;;
24337;SDS011;12457;50.832;4.346;2023-12-07T00:30:43;49.75;;;22.80;;
24337;SDS011;12457;50.832;4.346;2023-12-07T00:33:09;47.65;;;23.85;;
24337;SDS011;12457;50.832;4.346;2023-12-07T00:35:35;46.20;;;22.17;;
24337;SDS011;12457;50.832;4.346;2023-12-07T00:38:01;48.35;;;20.80;;
24337;SDS011;12457;50.832;4.346;2023-12-07T00:40:27;42.28;;;21.25;;
24337;SDS011;12457;50.832;4.346;2023-12-07T00:42:53;43.20;;;21.35;;
24337;SDS011;12457;50.832;4.346;2023-12-07T00:45:19;47.67;;;22.92;;
24337;SDS011;12457;50.832;4.346;2023-12-07T00:47:44;46.00;;;20.90;;
24337;SDS011;12457;50.832;4.346;2023-12-07T00:50:16;50.47;;;22.92;;
24337;SDS011;12457;50.832;4.346;2023-12-07T00:52:42;41.67;;;21.52;;
24337;SDS011;12457;50.832;4.346;2023-12-07T00:55:08;39.78;;;20.00;;
24337;SDS011;12457;50.832;4.346;2023-12-07T00:57:34;46.38;;;22.00;;
24337;SDS011;12457;50.832;4.346;2023-12-07T01:00:00;45.92;;;21.90;;
24337;SDS011;12457;50.832;4.346;2023-12-07T01:02:26;40.53;;;21.55;;
24337;SDS011;12457;50.832;4.346;2023-12-07T01:04:52;40.40;;;21.63;;
24337;SDS011;12457;50.832;4.346;2023-12-07T01:07:18;51.15;;;21.88;;
24337;SDS011;12457;50.832;4.346;2023-12-07T01:09:44;47.17;;;23.13;;
24337;SDS011;12457;50.832;4.346;2023-12-07T01:12:10;45.58;;;22.70;;
24337;SDS011;12457;50.832;4.346;2023-12-07T01:14:36;44.35;;;21.48;;
24337;SDS011;12457;50.832;4.346;2023-12-07T01:17:01;41.45;;;21.38;;
24337;SDS011;12457;50.832;4.346;2023-12-07T01:19:36;42.80;;;22.45;;
24337;SDS011;12457;50.832;4.346;2023-12-07T01:22:02;42.75;;;21.52;;
24337;SDS011;12457;50.832;4.346;2023-12-07T01:24:28;45.60;;;23.10;;
24337;SDS011;12457;50.832;4.346;2023-12-07T01:26:54;47.00;;;21.90;;
24337;SDS011;12457;50.832;4.346;2023-12-07T01:29:20;48.05;;;23.20;;
24337;SDS011;12457;50.832;4.346;2023-12-07T01:31:46;47.50;;;23.42;;
24337;SDS011;12457;50.832;4.346;2023-12-07T01:34:13;41.90;;;22.83;;
24337;SDS011;12457;50.832;4.346;2023-12-07T01:36:57;47.90;;;23.40;;
24337;SDS011;12457;50.832;4.346;2023-12-07T01:39:24;43.95;;;21.17;;
24337;SDS011;12457;50.832;4.346;2023-12-07T01:41:51;44.65;;;22.00;;
24337;SDS011;12457;50.832;4.346;2023-12-07T01:44:17;39.65;;;20.40;;
24337;SDS011;12457;50.832;4.346;2023-12-07T01:46:42;44.10;;;22.20;;
24337;SDS011;12457;50.832;4.346;2023-12-07T01:49:08;39.47;;;21.38;;
24337;SDS011;12457;50.832;4.346;2023-12-07T01:54:20;47.55;;;23.05;;
24337;SDS011;12457;50.832;4.346;2023-12-07T01:56:46;45.08;;;23.38;;
24337;SDS011;12457;50.832;4.346;2023-12-07T01:59:12;42.95;;;22.73;;
24337;SDS011;12457;50.832;4.346;2023-12-07T02:01:38;42.00;;;22.45;;
24337;SDS011;12457;50.832;4.346;2023-12-07T02:04:04;39.88;;;21.23;;
24337;SDS011;12457;50.832;4.346;2023-12-07T02:09:14;35.88;;;19.85;;
24337;SDS011;12457;50.832;4.346;2023-12-07T02:11:42;41.45;;;21.30;;
24337;SDS011;12457;50.832;4.346;2023-12-07T02:14:07;37.72;;;20.27;;
24337;SDS011;12457;50.832;4.346;2023-12-07T02:16:37;39.15;;;20.50;;
24337;SDS011;12457;50.832;4.346;2023-12-07T02:21:50;33.38;;;17.75;;
24337;SDS011;12457;50.832;4.346;2023-12-07T02:24:22;32.85;;;17.90;;
24337;SDS011;12457;50.832;4.346;2023-12-07T02:26:52;30.55;;;16.85;;
24337;SDS011;12457;50.832;4.346;2023-12-07T02:29:19;34.42;;;17.63;;
24337;SDS011;12457;50.832;4.346;2023-12-07T02:31:45;30.90;;;17.77;;
24337;SDS011;12457;50.832;4.346;2023-12-07T02:34:11;31.52;;;16.90;;
24337;SDS011;12457;50.832;4.346;2023-12-07T02:36:38;32.65;;;17.80;;
24337;SDS011;12457;50.832;4.346;2023-12-07T02:39:05;34.28;;;17.17;;
24337;SDS011;12457;50.832;4.346;2023-12-07T02:41:32;31.08;;;17.30;;
24337;SDS011;12457;50.832;4.346;2023-12-07T02:43:58;29.60;;;16.83;;
24337;SDS011;12457;50.832;4.346;2023-12-07T02:46:25;33.30;;;17.33;;
24337;SDS011;12457;50.832;4.346;2023-12-07T02:48:51;30.05;;;16.95;;
24337;SDS011;12457;50.832;4.346;2023-12-07T02:51:17;29.92;;;17.00;;
24337;SDS011;12457;50.832;4.346;2023-12-07T02:53:43;36.15;;;16.48;;
24337;SDS011;12457;50.832;4.346;2023-12-07T02:56:08;33.95;;;17.38;;
24337;SDS011;12457;50.832;4.346;2023-12-07T02:58:34;32.22;;;16.98;;
24337;SDS011;12457;50.832;4.346;2023-12-07T03:01:00;28.85;;;16.65;;
24337;SDS011;12457;50.832;4.346;2023-12-07T03:03:25;32.20;;;17.55;;
24337;SDS011;12457;50.832;4.346;2023-12-07T03:08:59;30.02;;;16.13;;
24337;SDS011;12457;50.832;4.346;2023-12-07T03:11:24;27.33;;;16.02;;
24337;SDS011;12457;50.832;4.346;2023-12-07T03:13:51;30.65;;;17.33;;
24337;SDS011;12457;50.832;4.346;2023-12-07T03:16:19;31.58;;;17.33;;
24337;SDS011;12457;50.832;4.346;2023-12-07T03:18:45;27.83;;;16.20;;
24337;SDS011;12457;50.832;4.346;2023-12-07T03:21:17;31.85;;;17.98;;
24337;SDS011;12457;50.832;4.346;2023-12-07T03:23:43;36.80;;;17.65;;
24337;SDS011;12457;50.832;4.346;2023-12-07T03:26:10;26.35;;;17.00;;
24337;SDS011;12457;50.832;4.346;2023-12-07T03:28:35;29.52;;;16.52;;
24337;SDS011;12457;50.832;4.346;2023-12-07T03:31:02;27.00;;;16.13;;
24337;SDS011;12457;50.832;4.346;2023-12-07T03:33:28;28.45;;;15.52;;
24337;SDS011;12457;50.832;4.346;2023-12-07T03:35:54;27.40;;;15.70;;
24337;SDS011;12457;50.832;4.346;2023-12-07T03:38:20;25.48;;;16.05;;
24337;SDS011;12457;50.832;4.346;2023-12-07T03:40:45;22.75;;;15.95;;
24337;SDS011;12457;50.832;4.346;2023-12-07T03:43:13;25.45;;;14.80;;
24337;SDS011;12457;50.832;4.346;2023-12-07T03:45:38;22.90;;;14.98;;
24337;SDS011;12457;50.832;4.346;2023-12-07T03:48:04;34.85;;;15.75;;
24337;SDS011;12457;50.832;4.346;2023-12-07T03:50:30;30.27;;;15.68;;
24337;SDS011;12457;50.832;4.346;2023-12-07T03:52:55;29.85;;;15.02;;
24337;SDS011;12457;50.832;4.346;2023-12-07T03:55:21;29.85;;;15.10;;
24337;SDS011;12457;50.832;4.346;2023-12-07T03:57:47;27.85;;;16.25;;
24337;SDS011;12457;50.832;4.346;2023-12-07T04:00:12;25.02;;;15.40;;
24337;SDS011;12457;50.832;4.346;2023-12-07T04:02:38;29.42;;;15.57;;
24337;SDS011;12457;50.832;4.346;2023-12-07T04:05:04;27.17;;;15.98;;
24337;SDS011;12457;50.832;4.346;2023-12-07T04:07:42;30.63;;;16.52;;
24337;SDS011;12457;50.832;4.346;2023-12-07T04:10:08;29.00;;;15.82;;
24337;SDS011;12457;50.832;4.346;2023-12-07T04:12:34;28.38;;;16.75;;
24337;SDS011;12457;50.832;4.346;2023-12-07T04:15:00;30.27;;;15.90;;
24337;SDS011;12457;50.832;4.346;2023-12-07T04:17:27;27.63;;;15.45;;
24337;SDS011;12457;50.832;4.346;2023-12-07T04:19:53;25.20;;;16.30;;
24337;SDS011;12457;50.832;4.346;2023-12-07T04:22:20;32.08;;;16.70;;
24337;SDS011;12457;50.832;4.346;2023-12-07T04:24:46;26.50;;;15.82;;
24337;SDS011;12457;50.832;4.346;2023-12-07T04:27:12;29.52;;;15.98;;
24337;SDS011;12457;50.832;4.346;2023-12-07T04:29:37;25.45;;;15.63;;
24337;SDS011;12457;50.832;4.346;2023-12-07T04:32:03;25.30;;;15.27;;
24337;SDS011;12457;50.832;4.346;2023-12-07T04:34:29;22.02;;;14.65;;
24337;SDS011;12457;50.832;4.346;2023-12-07T04:36:55;29.05;;;16.48;;
24337;SDS011;12457;50.832;4.346;2023-12-07T04:39:21;24.55;;;14.80;;
24337;SDS011;12457;50.832;4.346;2023-12-07T04:41:47;26.73;;;15.13;;
24337;SDS011;12457;50.832;4.346;2023-12-07T04:44:12;26.73;;;14.45;;
24337;SDS011;12457;50.832;4.346;2023-12-07T04:46:38;25.13;;;15.93;;
24337;SDS011;12457;50.832;4.346;2023-12-07T04:49:04;23.38;;;14.88;;
24337;SDS011;12457;50.832;4.346;2023-12-07T04:54:52;24.33;;;14.82;;
24337;SDS011;12457;50.832;4.346;2023-12-07T04:57:17;26.75;;;15.55;;
24337;SDS011;12457;50.832;4.346;2023-12-07T04:59:43;35.42;;;17.40;;
24337;SDS011;12457;50.832;4.346;2023-12-07T05:02:13;32.05;;;16.02;;
24337;SDS011;12457;50.832;4.346;2023-12-07T05:04:39;31.10;;;16.50;;
24337;SDS011;12457;50.832;4.346;2023-12-07T05:07:20;31.17;;;15.75;;
24337;SDS011;12457;50.832;4.346;2023-12-07T05:09:47;25.17;;;15.82;;
24337;SDS011;12457;50.832;4.346;2023-12-07T05:12:13;26.13;;;14.93;;
24337;SDS011;12457;50.832;4.346;2023-12-07T05:14:41;29.92;;;15.50;;
24337;SDS011;12457;50.832;4.346;2023-12-07T05:17:10;30.83;;;16.17;;
24337;SDS011;12457;50.832;4.346;2023-12-07T05:19:37;27.63;;;16.08;;
24337;SDS011;12457;50.832;4.346;2023-12-07T05:22:02;25.63;;;15.57;;
24337;SDS011;12457;50.832;4.346;2023-12-07T05:24:28;26.90;;;15.32;;
24337;SDS011;12457;50.832;4.346;2023-12-07T05:26:57;28.15;;;16.13;;
24337;SDS011;12457;50.832;4.346;2023-12-07T05:29:23;27.52;;;15.20;;
24337;SDS011;12457;50.832;4.346;2023-12-07T05:31:49;28.20;;;15.95;;
24337;SDS011;12457;50.832;4.346;2023-12-07T05:34:16;26.23;;;15.18;;
24337;SDS011;12457;50.832;4.346;2023-12-07T05:36:48;25.50;;;14.70;;
24337;SDS011;12457;50.832;4.346;2023-12-07T05:39:13;26.10;;;14.50;;
24337;SDS011;12457;50.832;4.346;2023-12-07T05:41:42;26.65;;;15.75;;
24337;SDS011;12457;50.832;4.346;2023-12-07T05:44:08;25.83;;;14.45;;
24337;SDS011;12457;50.832;4.346;2023-12-07T05:46:35;32.92;;;16.08;;
24337;SDS011;12457;50.832;4.346;2023-12-07T05:49:01;27.23;;;14.55;;
24337;SDS011;12457;50.832;4.346;2023-12-07T05:51:27;27.13;;;15.93;;
24337;SDS011;12457;50.832;4.346;2023-12-07T05:53:59;23.10;;;14.27;;
24337;SDS011;12457;50.832;4.346;2023-12-07T05:56:24;24.80;;;14.80;;
24337;SDS011;12457;50.832;4.346;2023-12-07T05:58:50;23.95;;;13.88;;
24337;SDS011;12457;50.832;4.346;2023-12-07T06:01:18;23.05;;;13.85;;
24337;SDS011;12457;50.832;4.346;2023-12-07T06:03:44;24.48;;;14.07;;
24337;SDS011;12457;50.832;4.346;2023-12-07T06:06:11;29.08;;;14.73;;
24337;SDS011;12457;50.832;4.346;2023-12-07T06:08:38;23.92;;;14.75;;
24337;SDS011;12457;50.832;4.346;2023-12-07T06:11:05;24.80;;;14.25;;
24337;SDS011;12457;50.832;4.346;2023-12-07T06:13:31;26.38;;;14.93;;
24337;SDS011;12457;50.832;4.346;2023-12-07T06:15:57;24.23;;;14.38;;
24337;SDS011;12457;50.832;4.346;2023-12-07T06:18:28;28.58;;;15.38;;
24337;SDS011;12457;50.832;4.346;2023-12-07T06:20:55;28.73;;;16.02;;
24337;SDS011;12457;50.832;4.346;2023-12-07T06:23:20;31.42;;;14.85;;
24337;SDS011;12457;50.832;4.346;2023-12-07T06:25:46;28.77;;;15.43;;
24337;SDS011;12457;50.832;4.346;2023-12-07T06:28:12;25.73;;;15.05;;
24337;SDS011;12457;50.832;4.346;2023-12-07T06:30:38;27.08;;;13.57;;
24337;SDS011;12457;50.832;4.346;2023-12-07T06:33:04;27.92;;;14.40;;
24337;SDS011;12457;50.832;4.346;2023-12-07T06:35:29;25.75;;;15.45;;
24337;SDS011;12457;50.832;4.346;2023-12-07T06:37:55;23.92;;;14.10;;
24337;SDS011;12457;50.832;4.346;2023-12-07T06:40:21;23.42;;;14.20;;
24337;SDS011;12457;50.832;4.346;2023-12-07T06:42:47;25.30;;;13.13;;
24337;SDS011;12457;50.832;4.346;2023-12-07T06:45:13;24.52;;;13.52;;
24337;SDS011;12457;50.832;4.346;2023-12-07T06:47:42;23.65;;;14.30;;
24337;SDS011;12457;50.832;4.346;2023-12-07T06:50:08;20.08;;;12.88;;
24337;SDS011;12457;50.832;4.346;2023-12-07T06:52:37;24.77;;;13.98;;
24337;SDS011;12457;50.832;4.346;2023-12-07T06:55:03;26.05;;;14.15;;
24337;SDS011;12457;50.832;4.346;2023-12-07T06:57:31;24.58;;;14.00;;
24337;SDS011;12457;50.832;4.346;2023-12-07T06:59:57;24.27;;;13.43;;
24337;SDS011;12457;50.832;4.346;2023-12-07T07:02:23;23.27;;;13.30;;
24337;SDS011;12457;50.832;4.346;2023-12-07T07:04:50;21.45;;;13.40;;
24337;SDS011;12457;50.832;4.346;2023-12-07T07:07:17;23.38;;;13.90;;
24337;SDS011;12457;50.832;4.346;2023-12-07T07:09:43;21.50;;;12.95;;
24337;SDS011;12457;50.832;4.346;2023-12-07T07:12:08;27.20;;;12.88;;
24337;SDS011;12457;50.832;4.346;2023-12-07T07:14:35;27.50;;;13.45;;
24337;SDS011;12457;50.832;4.346;2023-12-07T07:17:00;27.58;;;14.32;;
24337;SDS011;12457;50.832;4.346;2023-12-07T07:19:26;26.17;;;12.60;;
24337;SDS011;12457;50.832;4.346;2023-12-07T07:21:53;34.58;;;14.40;;
24337;SDS011;12457;50.832;4.346;2023-12-07T07:24:19;23.17;;;13.82;;
24337;SDS011;12457;50.832;4.346;2023-12-07T07:26:45;26.77;;;12.85;;
24337;SDS011;12457;50.832;4.346;2023-12-07T07:29:10;24.17;;;13.70;;
24337;SDS011;12457;50.832;4.346;2023-12-07T07:31:36;30.63;;;13.63;;
24337;SDS011;12457;50.832;4.346;2023-12-07T07:34:02;32.45;;;13.57;;
24337;SDS011;12457;50.832;4.346;2023-12-07T07:36:28;31.52;;;12.85;;
24337;SDS011;12457;50.832;4.346;2023-12-07T07:39:09;22.35;;;13.40;;
24337;SDS011;12457;50.832;4.346;2023-12-07T07:41:36;32.40;;;14.40;;
24337;SDS011;12457;50.832;4.346;2023-12-07T07:44:02;24.27;;;13.50;;
24337;SDS011;12457;50.832;4.346;2023-12-07T07:46:27;25.52;;;13.02;;
24337;SDS011;12457;50.832;4.346;2023-12-07T07:48:53;29.35;;;14.00;;
24337;SDS011;12457;50.832;4.346;2023-12-07T07:51:19;28.67;;;13.50;;
24337;SDS011;12457;50.832;4.346;2023-12-07T07:53:59;27.38;;;13.98;;
24337;SDS011;12457;50.832;4.346;2023-12-07T07:56:25;26.65;;;13.68;;
24337;SDS011;12457;50.832;4.346;2023-12-07T07:58:51;28.80;;;14.13;;
24337;SDS011;12457;50.832;4.346;2023-12-07T08:01:18;26.98;;;13.43;;
24337;SDS011;12457;50.832;4.346;2023-12-07T08:03:45;25.23;;;13.75;;
24337;SDS011;12457;50.832;4.346;2023-12-07T08:06:10;28.67;;;13.70;;
24337;SDS011;12457;50.832;4.346;2023-12-07T08:08:37;24.67;;;13.38;;
24337;SDS011;12457;50.832;4.346;2023-12-07T08:11:03;23.45;;;13.70;;
24337;SDS011;12457;50.832;4.346;2023-12-07T08:13:30;27.98;;;14.32;;
24337;SDS011;12457;50.832;4.346;2023-12-07T08:15:56;26.63;;;14.55;;
24337;SDS011;12457;50.832;4.346;2023-12-07T08:18:21;24.08;;;13.55;;
24337;SDS011;12457;50.832;4.346;2023-12-07T08:20:48;24.25;;;12.55;;
24337;SDS011;12457;50.832;4.346;2023-12-07T08:23:15;30.70;;;13.80;;
24337;SDS011;12457;50.832;4.346;2023-12-07T08:25:41;21.15;;;12.25;;
24337;SDS011;12457;50.832;4.346;2023-12-07T08:28:08;29.55;;;13.68;;
24337;SDS011;12457;50.832;4.346;2023-12-07T08:30:35;21.40;;;12.77;;
24337;SDS011;12457;50.832;4.346;2023-12-07T08:33:01;24.92;;;13.02;;
24337;SDS011;12457;50.832;4.346;2023-12-07T08:35:27;24.38;;;12.82;;
24337;SDS011;12457;50.832;4.346;2023-12-07T08:37:58;26.10;;;12.82;;
24337;SDS011;12457;50.832;4.346;2023-12-07T08:40:25;21.23;;;12.85;;
24337;SDS011;12457;50.832;4.346;2023-12-07T08:42:51;23.70;;;12.65;;
24337;SDS011;12457;50.832;4.346;2023-12-07T08:45:16;19.60;;;11.88;;
24337;SDS011;12457;50.832;4.346;2023-12-07T08:47:42;20.98;;;11.73;;
24337;SDS011;12457;50.832;4.346;2023-12-07T08:50:08;28.63;;;14.93;;
24337;SDS011;12457;50.832;4.346;2023-12-07T08:52:34;20.25;;;11.60;;
24337;SDS011;12457;50.832;4.346;2023-12-07T08:55:00;16.95;;;11.18;;
24337;SDS011;12457;50.832;4.346;2023-12-07T08:57:26;21.38;;;11.30;;
24337;SDS011;12457;50.832;4.346;2023-12-07T08:59:52;25.15;;;11.00;;
24337;SDS011;12457;50.832;4.346;2023-12-07T09:02:19;21.25;;;11.38;;
24337;SDS011;12457;50.832;4.346;2023-12-07T09:04:45;19.48;;;11.02;;
24337;SDS011;12457;50.832;4.346;2023-12-07T09:07:11;17.95;;;10.77;;
24337;SDS011;12457;50.832;4.346;2023-12-07T09:09:44;19.00;;;11.38;;
24337;SDS011;12457;50.832;4.346;2023-12-07T09:12:12;17.48;;;10.80;;
24337;SDS011;12457;50.832;4.346;2023-12-07T09:14:39;17.92;;;10.68;;
24337;SDS011;12457;50.832;4.346;2023-12-07T09:17:05;19.27;;;11.15;;
24337;SDS011;12457;50.832;4.346;2023-12-07T09:19:31;20.60;;;10.90;;
24337;SDS011;12457;50.832;4.346;2023-12-07T09:21:57;18.75;;;10.73;;
24337;SDS011;12457;50.832;4.346;2023-12-07T09:27:44;18.65;;;9.40;;
24337;SDS011;12457;50.832;4.346;2023-12-07T09:30:09;16.65;;;9.65;;
24337;SDS011;12457;50.832;4.346;2023-12-07T09:32:36;16.88;;;10.15;;
24337;SDS011;12457;50.832;4.346;2023-12-07T09:35:05;24.05;;;10.85;;
24337;SDS011;12457;50.832;4.346;2023-12-07T09:37:45;20.10;;;10.07;;
24337;SDS011;12457;50.832;4.346;2023-12-07T09:40:18;16.10;;;9.75;;
24337;SDS011;12457;50.832;4.346;2023-12-07T09:42:46;16.05;;;10.13;;
24337;SDS011;12457;50.832;4.346;2023-12-07T09:45:14;14.55;;;9.70;;
24337;SDS011;12457;50.832;4.346;2023-12-07T09:47:42;19.52;;;10.15;;
24337;SDS011;12457;50.832;4.346;2023-12-07T09:50:08;27.15;;;11.55;;
24337;SDS011;12457;50.832;4.346;2023-12-07T09:52:35;19.35;;;10.05;;
24337;SDS011;12457;50.832;4.346;2023-12-07T09:55:04;24.42;;;9.95;;
24337;SDS011;12457;50.832;4.346;2023-12-07T09:57:32;18.45;;;9.55;;
24337;SDS011;12457;50.832;4.346;2023-12-07T09:59:58;20.85;;;10.35;;
24337;SDS011;12457;50.832;4.346;2023-12-07T10:02:26;23.38;;;9.50;;
24337;SDS011;12457;50.832;4.346;2023-12-07T10:05:04;18.42;;;9.00;;
24337;SDS011;12457;50.832;4.346;2023-12-07T10:07:33;21.10;;;8.57;;
24337;SDS011;12457;50.832;4.346;2023-12-07T10:10:03;16.70;;;9.60;;
24337;SDS011;12457;50.832;4.346;2023-12-07T10:12:30;19.33;;;11.65;;
24337;SDS011;12457;50.832;4.346;2023-12-07T10:14:58;17.83;;;10.10;;
24337;SDS011;12457;50.832;4.346;2023-12-07T10:17:31;21.40;;;10.27;;
24337;SDS011;12457;50.832;4.346;2023-12-07T10:20:23;27.10;;;13.90;;
24337;SDS011;12457;50.832;4.346;2023-12-07T10:23:06;13.25;;;9.27;;
24337;SDS011;12457;50.832;4.346;2023-12-07T10:28:53;15.57;;;8.48;;
24337;SDS011;12457;50.832;4.346;2023-12-07T10:31:24;16.90;;;8.68;;
24337;SDS011;12457;50.832;4.346;2023-12-07T10:33:56;19.73;;;9.02;;
24337;SDS011;12457;50.832;4.346;2023-12-07T10:36:22;13.23;;;8.20;;
24337;SDS011;12457;50.832;4.346;2023-12-07T10:38:48;21.10;;;8.40;;
24337;SDS011;12457;50.832;4.346;2023-12-07T10:41:18;21.48;;;9.68;;
24337;SDS011;12457;50.832;4.346;2023-12-07T10:44:07;13.65;;;7.75;;
24337;SDS011;12457;50.832;4.346;2023-12-07T10:46:33;14.98;;;9.40;;
24337;SDS011;12457;50.832;4.346;2023-12-07T10:49:05;13.82;;;8.30;;
24337;SDS011;12457;50.832;4.346;2023-12-07T10:51:45;16.33;;;7.20;;
24337;SDS011;12457;50.832;4.346;2023-12-07T10:54:16;14.80;;;7.32;;
24337;SDS011;12457;50.832;4.346;2023-12-07T10:56:47;20.08;;;7.78;;
24337;SDS011;12457;50.832;4.346;2023-12-07T10:59:15;26.00;;;9.68;;
24337;SDS011;12457;50.832;4.346;2023-12-07T11:01:43;15.20;;;7.90;;
24337;SDS011;12457;50.832;4.346;2023-12-07T11:04:11;13.38;;;7.60;;
24337;SDS011;12457;50.832;4.346;2023-12-07T11:06:44;12.07;;;7.32;;
24337;SDS011;12457;50.832;4.346;2023-12-07T11:09:16;13.73;;;7.38;;
24337;SDS011;12457;50.832;4.346;2023-12-07T11:14:14;14.60;;;7.43;;
24337;SDS011;12457;50.832;4.346;2023-12-07T11:16:52;12.63;;;7.32;;
24337;SDS011;12457;50.832;4.346;2023-12-07T11:21:57;12.93;;;7.60;;
24337;SDS011;12457;50.832;4.346;2023-12-07T11:24:24;12.95;;;7.22;;
24337;SDS011;12457;50.832;4.346;2023-12-07T11:26:53;14.27;;;6.97;;
24337;SDS011;12457;50.832;4.346;2023-12-07T11:29:20;13.25;;;7.38;;
24337;SDS011;12457;50.832;4.346;2023-12-07T11:31:46;16.75;;;7.60;;
24337;SDS011;12457;50.832;4.346;2023-12-07T11:34:13;12.27;;;6.32;;
24337;SDS011;12457;50.832;4.346;2023-12-07T11:36:56;12.10;;;6.97;;
24337;SDS011;12457;50.832;4.346;2023-12-07T11:39:27;14.80;;;6.82;;
24337;SDS011;12457;50.832;4.346;2023-12-07T11:41:54;14.75;;;7.15;;
24337;SDS011;12457;50.832;4.346;2023-12-07T11:44:32;14.93;;;7.20;;
24337;SDS011;12457;50.832;4.346;2023-12-07T11:47:00;13.82;;;6.78;;
24337;SDS011;12457;50.832;4.346;2023-12-07T11:49:26;11.27;;;7.20;;
24337;SDS011;12457;50.832;4.346;2023-12-07T11:51:52;14.18;;;6.90;;
24337;SDS011;12457;50.832;4.346;2023-12-07T11:54:18;15.82;;;6.82;;
24337;SDS011;12457;50.832;4.346;2023-12-07T11:56:44;14.98;;;6.07;;
24337;SDS011;12457;50.832;4.346;2023-12-07T11:59:16;15.85;;;7.22;;
24337;SDS011;12457;50.832;4.346;2023-12-07T12:01:46;13.10;;;6.50;;
24337;SDS011;12457;50.832;4.346;2023-12-07T12:04:12;13.05;;;6.47;;
24337;SDS011;12457;50.832;4.346;2023-12-07T12:06:38;14.93;;;6.55;;
24337;SDS011;12457;50.832;4.346;2023-12-07T12:09:04;10.57;;;5.90;;
24337;SDS011;12457;50.832;4.346;2023-12-07T12:11:29;11.88;;;5.70;;
24337;SDS011;12457;50.832;4.346;2023-12-07T12:13:55;11.95;;;6.60;;
24337;SDS011;12457;50.832;4.346;2023-12-07T12:16:22;11.80;;;6.93;;
24337;SDS011;12457;50.832;4.346;2023-12-07T12:18:48;12.23;;;6.25;;
24337;SDS011;12457;50.832;4.346;2023-12-07T12:21:14;12.63;;;5.82;;
24337;SDS011;12457;50.832;4.346;2023-12-07T12:23:39;11.00;;;5.72;;
24337;SDS011;12457;50.832;4.346;2023-12-07T12:26:06;13.30;;;6.38;;
24337;SDS011;12457;50.832;4.346;2023-12-07T12:28:35;17.35;;;7.18;;
24337;SDS011;12457;50.832;4.346;2023-12-07T12:31:08;15.23;;;6.80;;
24337;SDS011;12457;50.832;4.346;2023-12-07T12:33:37;13.57;;;6.25;;
24337;SDS011;12457;50.832;4.346;2023-12-07T12:36:04;10.65;;;6.60;;
24337;SDS011;12457;50.832;4.346;2023-12-07T12:38:36;11.68;;;7.20;;
24337;SDS011;12457;50.832;4.346;2023-12-07T12:41:05;12.15;;;6.53;;
24337;SDS011;12457;50.832;4.346;2023-12-07T12:43:31;13.38;;;6.88;;
24337;SDS011;12457;50.832;4.346;2023-12-07T12:45:57;10.05;;;6.03;;
24337;SDS011;12457;50.832;4.346;2023-12-07T12:48:25;13.38;;;6.03;;
24337;SDS011;12457;50.832;4.346;2023-12-07T12:50:51;10.20;;;5.57;;
24337;SDS011;12457;50.832;4.346;2023-12-07T12:53:17;13.07;;;5.50;;
24337;SDS011;12457;50.832;4.346;2023-12-07T12:55:47;9.73;;;5.60;;
24337;SDS011;12457;50.832;4.346;2023-12-07T12:58:15;11.75;;;5.70;;
24337;SDS011;12457;50.832;4.346;2023-12-07T13:00:42;8.80;;;5.63;;
24337;SDS011;12457;50.832;4.346;2023-12-07T13:03:09;14.40;;;5.90;;
24337;SDS011;12457;50.832;4.346;2023-12-07T13:05:39;11.57;;;5.55;;
24337;SDS011;12457;50.832;4.346;2023-12-07T13:08:06;9.40;;;5.60;;
24337;SDS011;12457;50.832;4.346;2023-12-07T13:13:59;8.93;;;5.45;;
24337;SDS011;12457;50.832;4.346;2023-12-07T13:16:31;10.35;;;5.65;;
24337;SDS011;12457;50.832;4.346;2023-12-07T13:18:58;16.40;;;5.85;;
24337;SDS011;12457;50.832;4.346;2023-12-07T13:21:24;10.18;;;5.22;;
24337;SDS011;12457;50.832;4.346;2023-12-07T13:23:51;12.43;;;6.13;;
24337;SDS011;12457;50.832;4.346;2023-12-07T13:26:18;13.90;;;6.00;;
24337;SDS011;12457;50.832;4.346;2023-12-07T13:28:45;9.32;;;5.45;;
24337;SDS011;12457;50.832;4.346;2023-12-07T13:31:11;12.55;;;5.82;;
24337;SDS011;12457;50.832;4.346;2023-12-07T13:33:36;11.35;;;5.80;;
24337;SDS011;12457;50.832;4.346;2023-12-07T13:36:03;13.82;;;5.40;;
24337;SDS011;12457;50.832;4.346;2023-12-07T13:38:29;11.73;;;6.07;;
24337;SDS011;12457;50.832;4.346;2023-12-07T13:41:11;10.10;;;6.03;;
24337;SDS011;12457;50.832;4.346;2023-12-07T13:43:37;12.40;;;5.65;;
24337;SDS011;12457;50.832;4.346;2023-12-07T13:46:03;13.60;;;6.57;;
24337;SDS011;12457;50.832;4.346;2023-12-07T13:48:30;10.43;;;5.72;;
24337;SDS011;12457;50.832;4.346;2023-12-07T13:50:55;9.50;;;5.40;;
24337;SDS011;12457;50.832;4.346;2023-12-07T13:53:21;11.73;;;6.00;;
24337;SDS011;12457;50.832;4.346;2023-12-07T13:58:36;7.85;;;5.53;;
24337;SDS011;12457;50.832;4.346;2023-12-07T14:01:01;10.60;;;6.07;;
24337;SDS011;12457;50.832;4.346;2023-12-07T14:03:27;12.85;;;6.20;;
24337;SDS011;12457;50.832;4.346;2023-12-07T14:05:53;11.20;;;6.53;;
24337;SDS011;12457;50.832;4.346;2023-12-07T14:08:19;11.43;;;6.30;;
24337;SDS011;12457;50.832;4.346;2023-12-07T14:10:46;10.18;;;5.80;;
24337;SDS011;12457;50.832;4.346;2023-12-07T14:13:12;9.32;;;6.18;;
24337;SDS011;12457;50.832;4.346;2023-12-07T14:15:42;10.68;;;5.72;;
24337;SDS011;12457;50.832;4.346;2023-12-07T14:18:11;10.80;;;5.85;;
24337;SDS011;12457;50.832;4.346;2023-12-07T14:20:40;12.63;;;6.07;;
24337;SDS011;12457;50.832;4.346;2023-12-07T14:23:07;9.18;;;5.78;;
24337;SDS011;12457;50.832;4.346;2023-12-07T14:25:33;17.23;;;6.50;;
24337;SDS011;12457;50.832;4.346;2023-12-07T14:28:08;9.50;;;6.47;;
24337;SDS011;12457;50.832;4.346;2023-12-07T14:30:34;11.77;;;5.40;;
24337;SDS011;12457;50.832;4.346;2023-12-07T14:33:01;9.25;;;6.05;;
24337;SDS011;12457;50.832;4.346;2023-12-07T14:35:27;8.55;;;6.38;;
24337;SDS011;12457;50.832;4.346;2023-12-07T14:37:53;12.25;;;7.03;;
24337;SDS011;12457;50.832;4.346;2023-12-07T14:40:19;8.77;;;5.32;;
24337;SDS011;12457;50.832;4.346;2023-12-07T14:45:33;9.32;;;5.93;;
24337;SDS011;12457;50.832;4.346;2023-12-07T14:47:59;10.98;;;6.78;;
24337;SDS011;12457;50.832;4.346;2023-12-07T14:50:24;9.07;;;6.05;;
24337;SDS011;12457;50.832;4.346;2023-12-07T14:52:50;14.10;;;6.78;;
24337;SDS011;12457;50.832;4.346;2023-12-07T14:55:17;12.45;;;6.00;;
24337;SDS011;12457;50.832;4.346;2023-12-07T14:57:44;14.15;;;5.85;;
24337;SDS011;12457;50.832;4.346;2023-12-07T15:00:10;12.52;;;6.68;;
24337;SDS011;12457;50.832;4.346;2023-12-07T15:02:39;14.07;;;7.32;;